sensor_id;sensor_type;location;lat;lon;timestamp;P1;durP1;ratioP1;P2;durP2;ratioP2
30723;SDS011;17473;52.286;20.930;2023-08-17T00:00:03;12.02;;;9.27;;
30723;SDS011;17473;52.286;20.930;2023-08-17T00:02:34;17.15;;;9.52;;
30723;SDS011;17473;52.286;20.930;2023-08-17T00:05:02;17.13;;;8.50;;
30723;SDS011;17473;52.286;20.930;2023-08-17T00:07:29;11.93;;;8.23;;
30723;SDS011;17473;52.286;20.930;2023-08-17T00:09:56;16.52;;;9.73;;
30723;SDS011;17473;52.286;20.930;2023-08-17T00:12:23;17.83;;;9.32;;
30723;SDS011;17473;52.286;20.930;2023-08-17T00:14:51;14.48;;;8.45;;
30723;SDS011;17473;52.286;20.930;2023-08-17T00:17:19;16.73;;;8.25;;
30723;SDS011;17473;52.286;20.930;2023-08-17T00:19:47;9.68;;;8.48;;
30723;SDS011;17473;52.286;20.930;2023-08-17T00:22:14;12.43;;;8.65;;
30723;SDS011;17473;52.286;20.930;2023-08-17T00:24:41;11.25;;;8.35;;
30723;SDS011;17473;52.286;20.930;2023-08-17T00:27:11;19.95;;;9.45;;
30723;SDS011;17473;52.286;20.930;2023-08-17T00:29:38;14.32;;;9.30;;
30723;SDS011;17473;52.286;20.930;2023-08-17T00:32:05;13.18;;;9.50;;
30723;SDS011;17473;52.286;20.930;2023-08-17T00:34:32;16.25;;;9.95;;
30723;SDS011;17473;52.286;20.930;2023-08-17T00:36:59;11.85;;;9.50;;
30723;SDS011;17473;52.286;20.930;2023-08-17T00:39:26;13.20;;;9.13;;
30723;SDS011;17473;52.286;20.930;2023-08-17T00:41:53;10.85;;;9.18;;
30723;SDS011;17473;52.286;20.930;2023-08-17T00:44:20;16.88;;;9.10;;
30723;SDS011;17473;52.286;20.930;2023-08-17T00:46:48;12.35;;;9.45;;
30723;SDS011;17473;52.286;20.930;2023-08-17T00:49:15;14.15;;;9.80;;
30723;SDS011;17473;52.286;20.930;2023-08-17T00:51:42;15.32;;;9.35;;
30723;SDS011;17473;52.286;20.930;2023-08-17T00:54:09;10.52;;;8.80;;
30723;SDS011;17473;52.286;20.930;2023-08-17T00:56:37;11.38;;;9.55;;
30723;SDS011;17473;52.286;20.930;2023-08-17T00:59:04;11.75;;;8.60;;
30723;SDS011;17473;52.286;20.930;2023-08-17T01:01:32;12.68;;;9.35;;
30723;SDS011;17473;52.286;20.930;2023-08-17T01:03:59;14.75;;;9.15;;
30723;SDS011;17473;52.286;20.930;2023-08-17T01:06:26;12.45;;;9.55;;
30723;SDS011;17473;52.286;20.930;2023-08-17T01:08:53;12.10;;;9.25;;
30723;SDS011;17473;52.286;20.930;2023-08-17T01:17:03;15.80;;;10.30;;
30723;SDS011;17473;52.286;20.930;2023-08-17T01:19:41;14.88;;;10.90;;
30723;SDS011;17473;52.286;20.930;2023-08-17T01:22:11;15.02;;;10.02;;
30723;SDS011;17473;52.286;20.930;2023-08-17T01:24:41;19.45;;;9.52;;
30723;SDS011;17473;52.286;20.930;2023-08-17T01:27:08;10.45;;;8.85;;
30723;SDS011;17473;52.286;20.930;2023-08-17T01:29:35;11.80;;;9.82;;
30723;SDS011;17473;52.286;20.930;2023-08-17T01:35:04;10.02;;;8.82;;
30723;SDS011;17473;52.286;20.930;2023-08-17T01:37:41;13.07;;;9.13;;
30723;SDS011;17473;52.286;20.930;2023-08-17T01:40:09;18.85;;;9.73;;
30723;SDS011;17473;52.286;20.930;2023-08-17T01:42:40;14.18;;;10.05;;
30723;SDS011;17473;52.286;20.930;2023-08-17T01:45:09;16.48;;;9.88;;
30723;SDS011;17473;52.286;20.930;2023-08-17T01:47:37;13.30;;;9.30;;
30723;SDS011;17473;52.286;20.930;2023-08-17T01:50:04;21.08;;;11.18;;
30723;SDS011;17473;52.286;20.930;2023-08-17T01:52:32;13.35;;;10.00;;
30723;SDS011;17473;52.286;20.930;2023-08-17T01:54:59;14.38;;;9.98;;
30723;SDS011;17473;52.286;20.930;2023-08-17T01:57:26;13.57;;;10.48;;
30723;SDS011;17473;52.286;20.930;2023-08-17T01:59:53;15.48;;;10.02;;
30723;SDS011;17473;52.286;20.930;2023-08-17T02:02:21;13.52;;;10.18;;
30723;SDS011;17473;52.286;20.930;2023-08-17T02:04:49;11.75;;;10.32;;
30723;SDS011;17473;52.286;20.930;2023-08-17T02:07:16;14.13;;;9.95;;
30723;SDS011;17473;52.286;20.930;2023-08-17T02:09:43;15.60;;;10.52;;
30723;SDS011;17473;52.286;20.930;2023-08-17T02:12:10;13.27;;;10.15;;
30723;SDS011;17473;52.286;20.930;2023-08-17T02:14:37;13.02;;;10.27;;
30723;SDS011;17473;52.286;20.930;2023-08-17T02:17:04;19.73;;;10.80;;
30723;SDS011;17473;52.286;20.930;2023-08-17T02:19:31;15.40;;;10.75;;
30723;SDS011;17473;52.286;20.930;2023-08-17T02:21:59;13.20;;;10.40;;
30723;SDS011;17473;52.286;20.930;2023-08-17T02:24:28;20.48;;;9.63;;
30723;SDS011;17473;52.286;20.930;2023-08-17T02:26:55;16.30;;;11.57;;
30723;SDS011;17473;52.286;20.930;2023-08-17T02:29:22;13.75;;;10.85;;
30723;SDS011;17473;52.286;20.930;2023-08-17T02:31:49;20.20;;;10.73;;
30723;SDS011;17473;52.286;20.930;2023-08-17T02:34:16;16.70;;;11.55;;
30723;SDS011;17473;52.286;20.930;2023-08-17T02:36:43;21.17;;;11.73;;
30723;SDS011;17473;52.286;20.930;2023-08-17T02:39:10;16.48;;;11.77;;
30723;SDS011;17473;52.286;20.930;2023-08-17T02:41:37;21.02;;;11.73;;
30723;SDS011;17473;52.286;20.930;2023-08-17T02:44:05;17.83;;;12.30;;
30723;SDS011;17473;52.286;20.930;2023-08-17T02:46:32;17.08;;;11.68;;
30723;SDS011;17473;52.286;20.930;2023-08-17T02:48:59;13.90;;;11.45;;
30723;SDS011;17473;52.286;20.930;2023-08-17T02:51:26;17.63;;;12.05;;
30723;SDS011;17473;52.286;20.930;2023-08-17T02:53:53;14.23;;;11.07;;
30723;SDS011;17473;52.286;20.930;2023-08-17T02:56:21;18.10;;;11.85;;
30723;SDS011;17473;52.286;20.930;2023-08-17T02:58:48;15.13;;;11.95;;
30723;SDS011;17473;52.286;20.930;2023-08-17T03:01:15;16.05;;;13.07;;
30723;SDS011;17473;52.286;20.930;2023-08-17T03:03:42;20.40;;;12.98;;
30723;SDS011;17473;52.286;20.930;2023-08-17T03:06:09;22.33;;;12.32;;
30723;SDS011;17473;52.286;20.930;2023-08-17T03:08:36;16.48;;;12.35;;
30723;SDS011;17473;52.286;20.930;2023-08-17T03:11:03;19.55;;;12.52;;
30723;SDS011;17473;52.286;20.930;2023-08-17T03:13:33;17.15;;;11.82;;
30723;SDS011;17473;52.286;20.930;2023-08-17T03:16:00;18.95;;;12.20;;
30723;SDS011;17473;52.286;20.930;2023-08-17T03:18:28;16.63;;;13.18;;
30723;SDS011;17473;52.286;20.930;2023-08-17T03:20:55;17.17;;;12.02;;
30723;SDS011;17473;52.286;20.930;2023-08-17T03:23:22;21.65;;;13.02;;
30723;SDS011;17473;52.286;20.930;2023-08-17T03:25:52;20.15;;;12.45;;
30723;SDS011;17473;52.286;20.930;2023-08-17T03:28:20;20.52;;;12.85;;
30723;SDS011;17473;52.286;20.930;2023-08-17T03:30:47;18.08;;;13.10;;
30723;SDS011;17473;52.286;20.930;2023-08-17T03:33:14;16.15;;;12.27;;
30723;SDS011;17473;52.286;20.930;2023-08-17T03:35:41;21.98;;;12.05;;
30723;SDS011;17473;52.286;20.930;2023-08-17T03:38:08;17.73;;;12.85;;
30723;SDS011;17473;52.286;20.930;2023-08-17T03:40:35;19.50;;;12.05;;
30723;SDS011;17473;52.286;20.930;2023-08-17T03:43:02;16.45;;;11.68;;
30723;SDS011;17473;52.286;20.930;2023-08-17T03:45:30;29.02;;;12.30;;
30723;SDS011;17473;52.286;20.930;2023-08-17T03:47:57;19.15;;;12.30;;
30723;SDS011;17473;52.286;20.930;2023-08-17T03:50:25;14.98;;;11.05;;
30723;SDS011;17473;52.286;20.930;2023-08-17T03:52:54;19.15;;;12.00;;
30723;SDS011;17473;52.286;20.930;2023-08-17T03:55:21;17.45;;;12.20;;
30723;SDS011;17473;52.286;20.930;2023-08-17T03:57:48;20.40;;;12.15;;
30723;SDS011;17473;52.286;20.930;2023-08-17T04:00:15;16.63;;;11.40;;
30723;SDS011;17473;52.286;20.930;2023-08-17T04:02:43;14.25;;;11.38;;
30723;SDS011;17473;52.286;20.930;2023-08-17T04:05:10;17.38;;;12.60;;
30723;SDS011;17473;52.286;20.930;2023-08-17T04:07:37;17.58;;;12.40;;
30723;SDS011;17473;52.286;20.930;2023-08-17T04:10:05;18.92;;;12.13;;
30723;SDS011;17473;52.286;20.930;2023-08-17T04:12:33;17.55;;;11.52;;
30723;SDS011;17473;52.286;20.930;2023-08-17T04:15:00;16.52;;;11.77;;
30723;SDS011;17473;52.286;20.930;2023-08-17T04:17:28;14.93;;;11.63;;
30723;SDS011;17473;52.286;20.930;2023-08-17T04:19:55;18.25;;;11.20;;
30723;SDS011;17473;52.286;20.930;2023-08-17T04:22:22;17.15;;;11.05;;
30723;SDS011;17473;52.286;20.930;2023-08-17T04:24:49;16.17;;;11.70;;
30723;SDS011;17473;52.286;20.930;2023-08-17T04:27:16;16.85;;;12.18;;
30723;SDS011;17473;52.286;20.930;2023-08-17T04:29:44;15.80;;;10.60;;
30723;SDS011;17473;52.286;20.930;2023-08-17T04:32:14;21.23;;;11.65;;
30723;SDS011;17473;52.286;20.930;2023-08-17T04:34:42;15.68;;;11.23;;
30723;SDS011;17473;52.286;20.930;2023-08-17T04:37:12;20.17;;;10.73;;
30723;SDS011;17473;52.286;20.930;2023-08-17T04:39:39;17.77;;;10.68;;
30723;SDS011;17473;52.286;20.930;2023-08-17T04:42:07;15.25;;;11.02;;
30723;SDS011;17473;52.286;20.930;2023-08-17T04:44:34;16.90;;;10.32;;
30723;SDS011;17473;52.286;20.930;2023-08-17T04:47:01;14.38;;;9.43;;
30723;SDS011;17473;52.286;20.930;2023-08-17T04:49:28;16.20;;;9.73;;
30723;SDS011;17473;52.286;20.930;2023-08-17T04:51:56;11.60;;;9.10;;
30723;SDS011;17473;52.286;20.930;2023-08-17T04:54:23;10.70;;;8.75;;
30723;SDS011;17473;52.286;20.930;2023-08-17T04:56:50;14.07;;;8.73;;
30723;SDS011;17473;52.286;20.930;2023-08-17T04:59:17;16.35;;;8.43;;
30723;SDS011;17473;52.286;20.930;2023-08-17T05:01:44;12.27;;;7.45;;
30723;SDS011;17473;52.286;20.930;2023-08-17T05:04:11;12.23;;;7.93;;
30723;SDS011;17473;52.286;20.930;2023-08-17T05:06:39;15.43;;;8.32;;
30723;SDS011;17473;52.286;20.930;2023-08-17T05:09:06;14.32;;;8.13;;
30723;SDS011;17473;52.286;20.930;2023-08-17T05:11:33;15.15;;;7.60;;
30723;SDS011;17473;52.286;20.930;2023-08-17T05:14:00;14.25;;;7.88;;
30723;SDS011;17473;52.286;20.930;2023-08-17T05:16:27;11.20;;;7.93;;
30723;SDS011;17473;52.286;20.930;2023-08-17T05:18:54;10.73;;;7.03;;
30723;SDS011;17473;52.286;20.930;2023-08-17T05:21:22;13.98;;;7.43;;
30723;SDS011;17473;52.286;20.930;2023-08-17T05:23:49;13.18;;;7.88;;
30723;SDS011;17473;52.286;20.930;2023-08-17T05:26:16;12.38;;;8.02;;
30723;SDS011;17473;52.286;20.930;2023-08-17T05:28:43;9.93;;;7.82;;
30723;SDS011;17473;52.286;20.930;2023-08-17T05:31:11;13.63;;;8.15;;
30723;SDS011;17473;52.286;20.930;2023-08-17T05:33:38;10.82;;;7.72;;
30723;SDS011;17473;52.286;20.930;2023-08-17T05:36:07;10.23;;;7.60;;
30723;SDS011;17473;52.286;20.930;2023-08-17T05:38:34;15.10;;;8.13;;
30723;SDS011;17473;52.286;20.930;2023-08-17T05:41:01;13.90;;;7.10;;
30723;SDS011;17473;52.286;20.930;2023-08-17T05:43:29;16.13;;;7.80;;
30723;SDS011;17473;52.286;20.930;2023-08-17T05:45:57;14.25;;;7.78;;
30723;SDS011;17473;52.286;20.930;2023-08-17T05:48:27;10.63;;;7.15;;
30723;SDS011;17473;52.286;20.930;2023-08-17T05:50:57;11.70;;;6.93;;
30723;SDS011;17473;52.286;20.930;2023-08-17T05:53:24;10.20;;;6.90;;
30723;SDS011;17473;52.286;20.930;2023-08-17T05:55:51;12.07;;;7.03;;
30723;SDS011;17473;52.286;20.930;2023-08-17T05:58:18;13.65;;;7.40;;
30723;SDS011;17473;52.286;20.930;2023-08-17T06:00:46;10.57;;;7.00;;
30723;SDS011;17473;52.286;20.930;2023-08-17T06:03:13;12.23;;;6.95;;
30723;SDS011;17473;52.286;20.930;2023-08-17T06:05:40;14.35;;;6.60;;
30723;SDS011;17473;52.286;20.930;2023-08-17T06:08:07;13.75;;;7.10;;
30723;SDS011;17473;52.286;20.930;2023-08-17T06:10:34;10.95;;;7.18;;
30723;SDS011;17473;52.286;20.930;2023-08-17T06:13:02;18.73;;;7.20;;
30723;SDS011;17473;52.286;20.930;2023-08-17T06:15:29;16.48;;;6.75;;
30723;SDS011;17473;52.286;20.930;2023-08-17T06:17:57;15.55;;;8.90;;
30723;SDS011;17473;52.286;20.930;2023-08-17T06:20:24;14.45;;;8.30;;
30723;SDS011;17473;52.286;20.930;2023-08-17T06:22:51;11.77;;;7.00;;
30723;SDS011;17473;52.286;20.930;2023-08-17T06:25:18;18.38;;;7.25;;
30723;SDS011;17473;52.286;20.930;2023-08-17T06:27:48;18.50;;;7.88;;
30723;SDS011;17473;52.286;20.930;2023-08-17T06:30:15;20.15;;;6.43;;
30723;SDS011;17473;52.286;20.930;2023-08-17T06:32:43;12.93;;;6.15;;
30723;SDS011;17473;52.286;20.930;2023-08-17T06:35:10;17.58;;;6.85;;
30723;SDS011;17473;52.286;20.930;2023-08-17T06:37:38;19.90;;;7.22;;
30723;SDS011;17473;52.286;20.930;2023-08-17T06:40:05;10.30;;;5.65;;
30723;SDS011;17473;52.286;20.930;2023-08-17T06:42:35;10.00;;;6.03;;
30723;SDS011;17473;52.286;20.930;2023-08-17T06:45:03;14.95;;;5.90;;
30723;SDS011;17473;52.286;20.930;2023-08-17T06:47:31;8.50;;;5.47;;
30723;SDS011;17473;52.286;20.930;2023-08-17T06:49:58;12.63;;;5.43;;
30723;SDS011;17473;52.286;20.930;2023-08-17T06:52:25;8.35;;;5.53;;
30723;SDS011;17473;52.286;20.930;2023-08-17T06:54:53;11.38;;;5.82;;
30723;SDS011;17473;52.286;20.930;2023-08-17T06:57:20;10.00;;;5.55;;
30723;SDS011;17473;52.286;20.930;2023-08-17T06:59:48;10.80;;;5.82;;
30723;SDS011;17473;52.286;20.930;2023-08-17T07:02:15;10.23;;;5.63;;
30723;SDS011;17473;52.286;20.930;2023-08-17T07:04:42;13.00;;;6.35;;
30723;SDS011;17473;52.286;20.930;2023-08-17T07:07:10;11.35;;;6.47;;
30723;SDS011;17473;52.286;20.930;2023-08-17T07:09:37;8.25;;;5.70;;
30723;SDS011;17473;52.286;20.930;2023-08-17T07:12:04;11.90;;;6.00;;
30723;SDS011;17473;52.286;20.930;2023-08-17T07:14:32;12.40;;;5.60;;
30723;SDS011;17473;52.286;20.930;2023-08-17T07:16:59;8.98;;;5.63;;
30723;SDS011;17473;52.286;20.930;2023-08-17T07:19:27;12.20;;;6.45;;
30723;SDS011;17473;52.286;20.930;2023-08-17T07:22:14;12.05;;;6.32;;
30723;SDS011;17473;52.286;20.930;2023-08-17T07:24:42;9.55;;;6.75;;
30723;SDS011;17473;52.286;20.930;2023-08-17T07:27:09;10.55;;;7.10;;
30723;SDS011;17473;52.286;20.930;2023-08-17T07:29:37;8.07;;;5.88;;
30723;SDS011;17473;52.286;20.930;2023-08-17T07:32:04;9.95;;;6.20;;
30723;SDS011;17473;52.286;20.930;2023-08-17T07:34:31;14.77;;;7.10;;
30723;SDS011;17473;52.286;20.930;2023-08-17T07:36:58;8.65;;;6.15;;
30723;SDS011;17473;52.286;20.930;2023-08-17T07:39:26;14.30;;;6.75;;
30723;SDS011;17473;52.286;20.930;2023-08-17T07:41:53;9.85;;;6.68;;
30723;SDS011;17473;52.286;20.930;2023-08-17T07:44:20;12.63;;;6.40;;
30723;SDS011;17473;52.286;20.930;2023-08-17T07:46:47;15.18;;;6.85;;
30723;SDS011;17473;52.286;20.930;2023-08-17T07:49:15;13.55;;;6.43;;
30723;SDS011;17473;52.286;20.930;2023-08-17T07:51:57;11.68;;;6.50;;
30723;SDS011;17473;52.286;20.930;2023-08-17T07:54:24;8.43;;;6.28;;
30723;SDS011;17473;52.286;20.930;2023-08-17T07:56:52;10.07;;;6.88;;
30723;SDS011;17473;52.286;20.930;2023-08-17T07:59:19;12.13;;;7.20;;
30723;SDS011;17473;52.286;20.930;2023-08-17T08:01:47;12.73;;;7.32;;
30723;SDS011;17473;52.286;20.930;2023-08-17T08:04:15;13.95;;;7.05;;
30723;SDS011;17473;52.286;20.930;2023-08-17T08:06:42;14.40;;;7.97;;
30723;SDS011;17473;52.286;20.930;2023-08-17T08:09:09;11.15;;;6.93;;
30723;SDS011;17473;52.286;20.930;2023-08-17T08:11:36;11.55;;;7.18;;
30723;SDS011;17473;52.286;20.930;2023-08-17T08:14:04;10.15;;;6.85;;
30723;SDS011;17473;52.286;20.930;2023-08-17T08:16:31;20.42;;;7.43;;
30723;SDS011;17473;52.286;20.930;2023-08-17T08:18:58;13.75;;;7.22;;
30723;SDS011;17473;52.286;20.930;2023-08-17T08:21:26;21.10;;;8.15;;
30723;SDS011;17473;52.286;20.930;2023-08-17T08:23:54;14.07;;;6.90;;
30723;SDS011;17473;52.286;20.930;2023-08-17T08:26:22;14.73;;;7.68;;
30723;SDS011;17473;52.286;20.930;2023-08-17T08:28:50;11.15;;;7.65;;
30723;SDS011;17473;52.286;20.930;2023-08-17T08:31:17;16.45;;;7.63;;
30723;SDS011;17473;52.286;20.930;2023-08-17T08:33:44;12.07;;;6.63;;
30723;SDS011;17473;52.286;20.930;2023-08-17T08:36:11;11.05;;;7.20;;
30723;SDS011;17473;52.286;20.930;2023-08-17T08:38:39;11.68;;;7.60;;
30723;SDS011;17473;52.286;20.930;2023-08-17T08:41:06;18.00;;;7.15;;
30723;SDS011;17473;52.286;20.930;2023-08-17T08:43:35;14.65;;;7.97;;
30723;SDS011;17473;52.286;20.930;2023-08-17T08:46:03;16.40;;;7.80;;
30723;SDS011;17473;52.286;20.930;2023-08-17T08:48:31;10.20;;;6.97;;
30723;SDS011;17473;52.286;20.930;2023-08-17T08:50:59;17.10;;;7.55;;
30723;SDS011;17473;52.286;20.930;2023-08-17T08:56:32;15.45;;;7.78;;
30723;SDS011;17473;52.286;20.930;2023-08-17T08:59:01;10.52;;;7.53;;
30723;SDS011;17473;52.286;20.930;2023-08-17T09:01:32;17.90;;;9.55;;
30723;SDS011;17473;52.286;20.930;2023-08-17T09:04:01;16.08;;;9.85;;
30723;SDS011;17473;52.286;20.930;2023-08-17T09:06:29;23.65;;;9.20;;
30723;SDS011;17473;52.286;20.930;2023-08-17T09:08:57;15.77;;;7.35;;
30723;SDS011;17473;52.286;20.930;2023-08-17T09:11:26;10.20;;;7.28;;
30723;SDS011;17473;52.286;20.930;2023-08-17T09:13:53;21.00;;;8.13;;
30723;SDS011;17473;52.286;20.930;2023-08-17T09:16:20;11.90;;;6.93;;
30723;SDS011;17473;52.286;20.930;2023-08-17T09:18:52;12.70;;;7.55;;
30723;SDS011;17473;52.286;20.930;2023-08-17T09:21:23;12.45;;;7.55;;
30723;SDS011;17473;52.286;20.930;2023-08-17T09:23:54;9.50;;;6.90;;
30723;SDS011;17473;52.286;20.930;2023-08-17T09:26:29;13.27;;;7.00;;
30723;SDS011;17473;52.286;20.930;2023-08-17T09:29:03;13.60;;;7.43;;
30723;SDS011;17473;52.286;20.930;2023-08-17T09:31:45;19.80;;;6.70;;
30723;SDS011;17473;52.286;20.930;2023-08-17T09:34:14;16.05;;;6.95;;
30723;SDS011;17473;52.286;20.930;2023-08-17T09:36:42;9.60;;;6.47;;
30723;SDS011;17473;52.286;20.930;2023-08-17T09:39:15;12.45;;;7.20;;
30723;SDS011;17473;52.286;20.930;2023-08-17T09:41:44;8.93;;;6.18;;
30723;SDS011;17473;52.286;20.930;2023-08-17T09:44:11;12.48;;;7.97;;
30723;SDS011;17473;52.286;20.930;2023-08-17T09:46:39;15.60;;;6.65;;
30723;SDS011;17473;52.286;20.930;2023-08-17T09:49:10;11.30;;;6.22;;
30723;SDS011;17473;52.286;20.930;2023-08-17T09:51:37;12.40;;;6.75;;
30723;SDS011;17473;52.286;20.930;2023-08-17T09:54:09;14.63;;;6.35;;
30723;SDS011;17473;52.286;20.930;2023-08-17T09:56:54;10.55;;;6.00;;
30723;SDS011;17473;52.286;20.930;2023-08-17T09:59:22;8.95;;;6.22;;
30723;SDS011;17473;52.286;20.930;2023-08-17T10:01:50;9.67;;;5.70;;
30723;SDS011;17473;52.286;20.930;2023-08-17T10:04:21;10.18;;;6.30;;
30723;SDS011;17473;52.286;20.930;2023-08-17T10:06:56;8.38;;;5.47;;
30723;SDS011;17473;52.286;20.930;2023-08-17T10:09:28;11.10;;;6.20;;
30723;SDS011;17473;52.286;20.930;2023-08-17T10:12:15;10.45;;;6.07;;
30723;SDS011;17473;52.286;20.930;2023-08-17T10:14:45;9.32;;;6.32;;
30723;SDS011;17473;52.286;20.930;2023-08-17T10:17:39;7.07;;;5.70;;
30723;SDS011;17473;52.286;20.930;2023-08-17T10:20:42;7.88;;;5.43;;
30723;SDS011;17473;52.286;20.930;2023-08-17T10:23:16;10.50;;;5.95;;
30723;SDS011;17473;52.286;20.930;2023-08-17T10:25:45;10.02;;;5.45;;
30723;SDS011;17473;52.286;20.930;2023-08-17T10:28:16;13.60;;;6.05;;
30723;SDS011;17473;52.286;20.930;2023-08-17T10:30:44;8.55;;;5.63;;
30723;SDS011;17473;52.286;20.930;2023-08-17T10:33:11;7.43;;;5.88;;
30723;SDS011;17473;52.286;20.930;2023-08-17T10:35:39;8.32;;;6.28;;
30723;SDS011;17473;52.286;20.930;2023-08-17T10:38:07;9.48;;;6.35;;
30723;SDS011;17473;52.286;20.930;2023-08-17T10:40:37;14.43;;;5.25;;
30723;SDS011;17473;52.286;20.930;2023-08-17T10:43:08;8.50;;;4.50;;
30723;SDS011;17473;52.286;20.930;2023-08-17T10:45:36;11.45;;;4.72;;
30723;SDS011;17473;52.286;20.930;2023-08-17T10:50:36;9.05;;;3.95;;
30723;SDS011;17473;52.286;20.930;2023-08-17T10:53:08;7.30;;;4.70;;
30723;SDS011;17473;52.286;20.930;2023-08-17T10:55:45;9.95;;;4.32;;
30723;SDS011;17473;52.286;20.930;2023-08-17T10:58:18;4.75;;;3.58;;
30723;SDS011;17473;52.286;20.930;2023-08-17T11:00:45;6.65;;;3.85;;
30723;SDS011;17473;52.286;20.930;2023-08-17T11:03:19;13.88;;;4.50;;
30723;SDS011;17473;52.286;20.930;2023-08-17T11:05:55;7.82;;;4.53;;
30723;SDS011;17473;52.286;20.930;2023-08-17T11:08:31;8.50;;;4.20;;
30723;SDS011;17473;52.286;20.930;2023-08-17T11:11:12;10.18;;;3.92;;
30723;SDS011;17473;52.286;20.930;2023-08-17T11:13:44;5.07;;;3.80;;
30723;SDS011;17473;52.286;20.930;2023-08-17T11:16:13;8.50;;;4.03;;
30723;SDS011;17473;52.286;20.930;2023-08-17T11:18:46;12.32;;;3.70;;
30723;SDS011;17473;52.286;20.930;2023-08-17T11:21:15;8.80;;;4.22;;
30723;SDS011;17473;52.286;20.930;2023-08-17T11:23:45;13.05;;;4.35;;
30723;SDS011;17473;52.286;20.930;2023-08-17T11:26:16;6.47;;;4.50;;
30723;SDS011;17473;52.286;20.930;2023-08-17T11:28:45;8.70;;;4.35;;
30723;SDS011;17473;52.286;20.930;2023-08-17T11:31:13;8.05;;;4.90;;
30723;SDS011;17473;52.286;20.930;2023-08-17T11:33:42;5.13;;;4.18;;
30723;SDS011;17473;52.286;20.930;2023-08-17T11:36:11;6.85;;;3.72;;
30723;SDS011;17473;52.286;20.930;2023-08-17T11:38:39;8.85;;;4.43;;
30723;SDS011;17473;52.286;20.930;2023-08-17T11:41:09;10.73;;;4.25;;
30723;SDS011;17473;52.286;20.930;2023-08-17T11:43:43;7.20;;;4.43;;
30723;SDS011;17473;52.286;20.930;2023-08-17T11:46:11;6.28;;;3.95;;
30723;SDS011;17473;52.286;20.930;2023-08-17T11:48:39;8.13;;;3.22;;
30723;SDS011;17473;52.286;20.930;2023-08-17T11:51:06;7.88;;;3.78;;
30723;SDS011;17473;52.286;20.930;2023-08-17T11:53:33;11.15;;;3.33;;
30723;SDS011;17473;52.286;20.930;2023-08-17T11:56:02;7.57;;;3.60;;
30723;SDS011;17473;52.286;20.930;2023-08-17T12:01:11;4.88;;;2.17;;
30723;SDS011;17473;52.286;20.930;2023-08-17T12:03:39;5.55;;;2.50;;
30723;SDS011;17473;52.286;20.930;2023-08-17T12:06:08;3.50;;;2.60;;
30723;SDS011;17473;52.286;20.930;2023-08-17T12:08:36;5.70;;;2.70;;
30723;SDS011;17473;52.286;20.930;2023-08-17T12:11:04;3.97;;;2.58;;
30723;SDS011;17473;52.286;20.930;2023-08-17T12:13:34;6.45;;;3.03;;
30723;SDS011;17473;52.286;20.930;2023-08-17T12:16:02;5.43;;;2.92;;
30723;SDS011;17473;52.286;20.930;2023-08-17T12:18:33;5.97;;;2.97;;
30723;SDS011;17473;52.286;20.930;2023-08-17T12:21:03;3.05;;;2.35;;
30723;SDS011;17473;52.286;20.930;2023-08-17T12:23:32;8.75;;;2.80;;
30723;SDS011;17473;52.286;20.930;2023-08-17T12:25:59;4.25;;;2.70;;
30723;SDS011;17473;52.286;20.930;2023-08-17T12:28:26;4.75;;;2.72;;
30723;SDS011;17473;52.286;20.930;2023-08-17T12:31:00;6.28;;;2.88;;
30723;SDS011;17473;52.286;20.930;2023-08-17T12:33:29;9.70;;;3.03;;
30723;SDS011;17473;52.286;20.930;2023-08-17T12:35:56;4.68;;;3.20;;
30723;SDS011;17473;52.286;20.930;2023-08-17T12:38:24;8.95;;;2.58;;
30723;SDS011;17473;52.286;20.930;2023-08-17T12:40:52;7.25;;;3.15;;
30723;SDS011;17473;52.286;20.930;2023-08-17T12:43:20;4.43;;;3.15;;
30723;SDS011;17473;52.286;20.930;2023-08-17T12:45:47;4.40;;;3.20;;
30723;SDS011;17473;52.286;20.930;2023-08-17T12:48:14;4.63;;;2.90;;
30723;SDS011;17473;52.286;20.930;2023-08-17T12:50:41;6.53;;;2.72;;
30723;SDS011;17473;52.286;20.930;2023-08-17T12:53:09;4.60;;;3.13;;
30723;SDS011;17473;52.286;20.930;2023-08-17T12:55:37;7.82;;;3.20;;
30723;SDS011;17473;52.286;20.930;2023-08-17T12:58:07;4.28;;;2.88;;
30723;SDS011;17473;52.286;20.930;2023-08-17T13:00:35;4.20;;;2.80;;
30723;SDS011;17473;52.286;20.930;2023-08-17T13:03:03;25.23;;;3.25;;
30723;SDS011;17473;52.286;20.930;2023-08-17T13:05:30;5.75;;;2.95;;
30723;SDS011;17473;52.286;20.930;2023-08-17T13:07:59;5.10;;;3.17;;
30723;SDS011;17473;52.286;20.930;2023-08-17T13:10:27;7.43;;;3.13;;
30723;SDS011;17473;52.286;20.930;2023-08-17T13:12:54;6.60;;;3.63;;
30723;SDS011;17473;52.286;20.930;2023-08-17T13:15:25;4.28;;;2.70;;
30723;SDS011;17473;52.286;20.930;2023-08-17T13:17:53;4.15;;;2.88;;
30723;SDS011;17473;52.286;20.930;2023-08-17T13:20:20;4.13;;;2.78;;
30723;SDS011;17473;52.286;20.930;2023-08-17T13:22:47;8.02;;;2.72;;
30723;SDS011;17473;52.286;20.930;2023-08-17T13:25:15;7.78;;;3.33;;
30723;SDS011;17473;52.286;20.930;2023-08-17T13:27:43;6.47;;;3.38;;
30723;SDS011;17473;52.286;20.930;2023-08-17T13:30:10;6.45;;;3.30;;
30723;SDS011;17473;52.286;20.930;2023-08-17T13:32:38;6.05;;;3.17;;
30723;SDS011;17473;52.286;20.930;2023-08-17T13:35:05;5.78;;;3.00;;
30723;SDS011;17473;52.286;20.930;2023-08-17T13:37:33;3.67;;;2.55;;
30723;SDS011;17473;52.286;20.930;2023-08-17T13:40:03;4.47;;;3.35;;
30723;SDS011;17473;52.286;20.930;2023-08-17T13:42:31;7.15;;;3.40;;
30723;SDS011;17473;52.286;20.930;2023-08-17T13:44:58;4.75;;;3.30;;
30723;SDS011;17473;52.286;20.930;2023-08-17T13:47:26;8.98;;;2.90;;
30723;SDS011;17473;52.286;20.930;2023-08-17T13:49:53;5.72;;;2.88;;
30723;SDS011;17473;52.286;20.930;2023-08-17T13:52:22;6.22;;;2.60;;
30723;SDS011;17473;52.286;20.930;2023-08-17T13:54:50;4.43;;;3.00;;
30723;SDS011;17473;52.286;20.930;2023-08-17T13:57:17;5.53;;;3.08;;
30723;SDS011;17473;52.286;20.930;2023-08-17T13:59:44;4.25;;;3.00;;
30723;SDS011;17473;52.286;20.930;2023-08-17T14:02:11;7.57;;;3.13;;
30723;SDS011;17473;52.286;20.930;2023-08-17T14:04:38;5.65;;;3.28;;
30723;SDS011;17473;52.286;20.930;2023-08-17T14:07:06;7.60;;;3.40;;
30723;SDS011;17473;52.286;20.930;2023-08-17T14:09:33;4.18;;;2.80;;
30723;SDS011;17473;52.286;20.930;2023-08-17T14:12:00;6.55;;;3.00;;
30723;SDS011;17473;52.286;20.930;2023-08-17T14:14:28;4.63;;;3.05;;
30723;SDS011;17473;52.286;20.930;2023-08-17T14:16:55;4.78;;;2.80;;
30723;SDS011;17473;52.286;20.930;2023-08-17T14:19:24;5.13;;;3.20;;
30723;SDS011;17473;52.286;20.930;2023-08-17T14:21:53;4.68;;;2.90;;
30723;SDS011;17473;52.286;20.930;2023-08-17T14:24:20;7.28;;;3.50;;
30723;SDS011;17473;52.286;20.930;2023-08-17T14:26:47;6.78;;;3.92;;
30723;SDS011;17473;52.286;20.930;2023-08-17T14:29:15;6.35;;;3.28;;
30723;SDS011;17473;52.286;20.930;2023-08-17T14:31:42;3.72;;;3.13;;
30723;SDS011;17473;52.286;20.930;2023-08-17T14:34:09;10.05;;;3.75;;
30723;SDS011;17473;52.286;20.930;2023-08-17T14:36:36;5.78;;;3.22;;
30723;SDS011;17473;52.286;20.930;2023-08-17T14:39:03;8.18;;;3.22;;
30723;SDS011;17473;52.286;20.930;2023-08-17T14:41:30;9.52;;;3.70;;
30723;SDS011;17473;52.286;20.930;2023-08-17T14:43:59;6.53;;;3.80;;
30723;SDS011;17473;52.286;20.930;2023-08-17T14:46:28;6.30;;;3.78;;